Grand Canyon National Park, AZ

4:07 PM MST on July 29, 2014 (GMT -0700)
Grand Canyon National Park (KGCN) Elev 6608 ft | 35.95 °N, 112.15 °W | Change Station

Current weather conditions updated 13 minutes ago

Mostly Cloudy
Mostly Cloudy
79 °F
Feels Like 79 °F
N
8
Wind Variable Wind from West
Gusts 18 mph

Tomorrow is forecast to be Warmer than today.

Today
High -- | Low -- °F
--% Chance of Precip.
Yesterday
High -- | Low -- °F
Precip. -- in
5:33 AM 7:35 PM
Waxing Crescent, 8% visible
Pressure 30.02 in
Visibility 10.0 miles
Clouds Mostly Cloudy 7000 ft
Mostly Cloudy 8000 ft
Dew Point 49 °F
Humidity 35%
Rainfall 0.00 in
Snow Depth Not available.
UV 4 out of 12
Pollen 4.10 out of 12
Air Quality Not available.
Flu Activity Not available.
METAR KGCN 292254Z 26007G16KT 10SM BKN070 BKN080 26/09 A3029 RMK AO2 RAE2156 SLP164 P0000 T02610094

More Conditions Fewer Conditions

Pressure 30.02 in
Visibility 10.0 miles
Clouds Mostly Cloudy 7000 ft
Mostly Cloudy 8000 ft
Dew Point 49 °F
Humidity 35%
Rainfall 0.00 in
Snow Depth Not available.
UV 4 out of 12
Pollen 4.10 out of 12
Air Quality Not available.
Flu Activity Not available.
METAR KGCN 292254Z 26007G16KT 10SM BKN070 BKN080 26/09 A3029 RMK AO2 RAE2156 SLP164 P0000 T02610094

More Conditions Fewer Conditions

10-Day Weather Forecast

Almanac

Astronomy

Jul. 29, 2014 Rise Set
Actual Time 5:33 AM MST 7:35 PM MST
Civil Twilight 5:05 AM MST 8:04 PM MST
Nautical Twilight 4:30 AM MST 8:38 PM MST
Astronomical Twilight 3:53 AM MST 9:15 PM MST
Moon 8:06 AM MST 8:57 PM MST
Length of Visible Light 14h 58m
Length of Day
14h 02m
Tomorrow will be 1m 38s shorter.
Waxing Crescent, 8% of the Moon is Illuminated
Today
Waxing Crescent
Aug 3
First Quarter
Aug 10
Full
Aug 17
Last Quarter
Aug 25
New

Today's Extremes

State Highs State Lows

Community

WunderPhotos

Upload Photos

1,738,909 photos uploaded!

Nearby

Snow Depth

Station Depth Elevation
Workman Creek 0 in 6900 ft
Coronado Trail 0 in 8400 ft
Beaver Head 1 in 7990 ft

Earthquake Activity

City Distance Mag. Time & Date
No recent earthquake activity has been reported nearby.
Minimum magnitude displayed is 2.5.

Coastal Water Temperatures

Place Temperature
No Stations Reporting

Nearby Weather Stations

Station Location Temp. Heat Index Dew Point Humidity Wind Precip. Elev Updated Type
APRSWXNET Grand Canyon AZ , Grand Canyon, AZ 91 °F 89 °F 54 °F 29% NE  at  6 mph 0.00 in / hr 3900 ft 3:33 PM MST MADIS

Show More Stations Show Fewer Stations